Terminal Aerodrome Forecast
Issued by NWS

Home | Current Version | Previous Version | Text Only | Print | Product List | Glossary Off
Versions: 1 2 3 4 5 6 7 8 9 10 11 12

000
FTUS43 KICT 200520
TAFCNU
TAF
KCNU 200520Z 2006/2106 20007KT P6SM SCT200
     FM201300 19012KT P6SM SCT250
     FM201600 19017G26KT P6SM SCT250=

USA.gov is the U.S. government's official web portal to all federal, state and local government web resources and services.